Higgson, Arkansas
Current Conditions -  °F | °C
As of 5:56 PM on Wednesday 28 Jan 2015 (Local Time) from KSRC Reporting Station
Clear Clear  
Wind Chill: 54°   Ceiling: Unl
Heat Index: 54°   Visibility: 10mi
Dew Point: 39°   Wind: 8mph
Humidity: 57%   Direction: 160°SSE
Pressure: 30.07"   Gusts: NA
Location:  35.1796°N, 91.7125°W
Report Text: KSRC 282356Z AUTO 16007KT 10SM CLR 12/04 A3007 RMK AO2 SLP190 T01220039 10161 20117 56022 TSNO
Loading
Personal Weather Stations






























Interactive Weather Map New forecast layout! Learn more

10-Day Weather Forecast

Advertisements
Track Severe Weather on mobile